createdAt,value
2018-03-22T00:00:58.420Z,70.16
2018-03-22T00:03:27.878Z,69.64
2018-03-22T00:05:57.303Z,70.05
2018-03-22T00:08:26.843Z,70.02
2018-03-22T00:10:56.219Z,70.46
2018-03-22T00:13:25.630Z,70.34
2018-03-22T00:15:55.115Z,69.82
2018-03-22T00:18:24.381Z,69.67
2018-03-22T00:20:53.846Z,69.63
2018-03-22T00:23:23.255Z,70.12
2018-03-22T00:25:52.506Z,70.09
2018-03-22T00:28:22.077Z,69.37
2018-03-22T00:30:51.376Z,69.46
2018-03-22T00:33:20.909Z,69.98
2018-03-22T00:35:50.077Z,69.76
2018-03-22T00:38:19.362Z,70.46
2018-03-22T00:40:48.859Z,69.95
2018-03-22T00:43:18.177Z,69.59
2018-03-22T00:45:47.709Z,69.86
2018-03-22T00:48:17.259Z,69.51
2018-03-22T00:50:46.731Z,69.26
2018-03-22T00:53:15.992Z,68.60
2018-03-22T00:55:45.492Z,68.52
2018-03-22T00:58:14.989Z,68.78
2018-03-22T01:00:45.529Z,68.93
2018-03-22T01:03:15.080Z,68.51
2018-03-22T01:05:44.751Z,68.85
2018-03-22T01:08:14.103Z,68.71
2018-03-22T01:10:43.132Z,69.17
2018-03-22T01:13:12.326Z,69.11
2018-03-22T01:15:56.411Z,68.94
2018-03-22T01:18:25.564Z,68.25
2018-03-22T01:20:55.032Z,68.05
2018-03-22T01:23:24.525Z,68.24
2018-03-22T01:25:53.888Z,67.96
2018-03-22T01:28:23.234Z,68.48
2018-03-22T01:30:52.741Z,67.59
2018-03-22T01:33:22.032Z,67.66
2018-03-22T01:35:51.161Z,67.84
2018-03-22T01:38:20.986Z,67.37
2018-03-22T01:40:50.279Z,67.17
2018-03-22T01:43:19.605Z,66.52
2018-03-22T01:45:48.836Z,66.34
2018-03-22T01:48:18.160Z,66.67
2018-03-22T01:50:47.500Z,65.88
2018-03-22T01:53:16.692Z,66.95
2018-03-22T01:55:46.086Z,66.79
2018-03-22T01:58:16.004Z,65.91
2018-03-22T02:00:45.312Z,66.16
2018-03-22T02:03:14.655Z,65.40
2018-03-22T02:05:44.292Z,64.72
2018-03-22T02:08:13.618Z,63.28
2018-03-22T02:10:43.075Z,63.58
2018-03-22T02:13:12.393Z,64.18
2018-03-22T02:15:41.797Z,63.02
2018-03-22T02:18:11.049Z,62.00
2018-03-22T02:20:40.499Z,60.98
2018-03-22T02:23:10.179Z,60.78
2018-03-22T02:25:39.598Z,60.86
2018-03-22T02:28:09.028Z,60.37
2018-03-22T02:30:38.286Z,59.93
2018-03-22T02:33:07.826Z,60.90
2018-03-22T02:35:37.043Z,60.10
2018-03-22T02:38:06.253Z,59.33
2018-03-22T02:40:35.814Z,58.30
2018-03-22T02:43:06.346Z,57.84
2018-03-22T02:45:35.591Z,57.69
2018-03-22T02:48:05.286Z,57.33
2018-03-22T02:50:34.567Z,57.56
2018-03-22T02:53:04.022Z,57.85
2018-03-22T02:55:33.462Z,56.32
2018-03-22T02:58:03.186Z,55.94
2018-03-22T03:00:33.043Z,54.66
2018-03-22T03:03:02.592Z,53.92
2018-03-22T03:05:32.107Z,53.42
2018-03-22T03:08:01.485Z,54.23
2018-03-22T03:10:31.105Z,53.32
2018-03-22T03:13:00.362Z,53.64
2018-03-22T03:15:29.998Z,52.95
2018-03-22T03:17:59.364Z,52.28
2018-03-22T03:20:28.937Z,50.63
2018-03-22T03:22:58.542Z,50.85
2018-03-22T03:25:27.963Z,50.32
2018-03-22T03:27:57.353Z,50.42
2018-03-22T03:30:26.690Z,49.72
2018-03-22T03:32:56.193Z,48.54
2018-03-22T03:35:25.576Z,48.56
2018-03-22T03:37:55.056Z,48.44
2018-03-22T03:40:24.704Z,47.83
2018-03-22T03:42:54.078Z,46.93
2018-03-22T03:45:23.424Z,46.73
2018-03-22T03:47:52.800Z,44.87
2018-03-22T03:50:21.730Z,44.34
2018-03-22T03:52:51.041Z,43.74
2018-03-22T03:55:20.437Z,43.94
2018-03-22T03:57:49.690Z,44.39
2018-03-22T04:00:19.477Z,45.40
2018-03-22T04:02:48.515Z,45.51
2018-03-22T04:05:17.613Z,43.63
2018-03-22T04:07:47.331Z,42.44
2018-03-22T04:10:16.135Z,41.00
2018-03-22T04:12:45.356Z,41.69
2018-03-22T04:15:14.699Z,41.88
2018-03-22T04:17:44.122Z,41.44
2018-03-22T04:20:13.263Z,40.69
2018-03-22T04:22:42.631Z,40.93
2018-03-22T04:25:12.105Z,41.83
2018-03-22T04:27:41.657Z,42.29
2018-03-22T04:30:11.045Z,41.67
2018-03-22T04:32:40.500Z,41.12
2018-03-22T04:35:09.596Z,42.34
2018-03-22T04:37:38.539Z,42.62
2018-03-22T04:40:07.943Z,42.38
2018-03-22T04:42:37.252Z,41.33
2018-03-22T04:45:06.790Z,40.67
2018-03-22T04:47:37.167Z,40.65
2018-03-22T04:50:07.698Z,40.76
2018-03-22T04:52:38.354Z,39.17
2018-03-22T04:55:08.632Z,42.11
2018-03-22T04:57:39.447Z,41.27
2018-03-22T05:00:09.877Z,40.28
2018-03-22T05:02:40.424Z,39.21
2018-03-22T05:05:10.664Z,38.20
2018-03-22T05:07:41.327Z,39.08
2018-03-22T05:10:10.551Z,39.87
2018-03-22T05:12:39.658Z,38.42
2018-03-22T05:15:09.294Z,38.22
2018-03-22T05:17:38.403Z,38.91
2018-03-22T05:20:08.781Z,37.74
2018-03-22T05:22:38.214Z,35.34
2018-03-22T05:25:08.591Z,38.07
2018-03-22T05:27:38.506Z,37.70
2018-03-22T05:30:08.303Z,36.69
2018-03-22T05:32:38.744Z,36.01
2018-03-22T05:35:09.826Z,36.64
2018-03-22T05:37:41.340Z,35.96
2018-03-22T05:40:12.340Z,36.80
2018-03-22T05:42:43.579Z,36.24
2018-03-22T05:45:14.921Z,35.29
2018-03-22T05:47:45.723Z,35.42
2018-03-22T05:50:16.676Z,32.48
2018-03-22T05:52:47.928Z,32.53
2018-03-22T05:55:19.059Z,33.89
2018-03-22T05:57:49.820Z,32.11
2018-03-22T06:00:21.664Z,32.23
2018-03-22T06:02:52.705Z,33.44
2018-03-22T06:05:22.133Z,33.30
2018-03-22T06:07:53.384Z,32.09
2018-03-22T06:10:24.595Z,32.39
2018-03-22T06:12:55.206Z,32.55
2018-03-22T06:15:25.507Z,33.73
2018-03-22T06:17:56.399Z,34.89
2018-03-22T06:20:28.305Z,34.12
2018-03-22T06:22:59.428Z,32.35
2018-03-22T06:25:31.450Z,33.24
2018-03-22T06:28:03.038Z,32.76
2018-03-22T06:30:35.165Z,33.47
2018-03-22T06:33:05.894Z,33.82
2018-03-22T06:35:37.023Z,35.15
2018-03-22T06:38:08.198Z,34.18
2018-03-22T06:40:39.915Z,33.49
2018-03-22T06:43:11.098Z,31.53
2018-03-22T06:45:42.612Z,31.42
2018-03-22T06:48:13.729Z,30.59
2018-03-22T06:50:43.350Z,30.07
2018-03-22T06:53:13.709Z,27.42
2018-03-22T06:55:44.339Z,28.85
2018-03-22T06:58:15.041Z,28.76
2018-03-22T07:00:45.287Z,29.54
2018-03-22T07:03:15.651Z,29.75
2018-03-22T07:05:46.381Z,29.13
2018-03-22T07:08:17.738Z,26.81
2018-03-22T07:10:48.495Z,26.74
2018-03-22T07:13:19.047Z,25.53
2018-03-22T07:15:48.321Z,25.70
2018-03-22T07:18:17.680Z,24.20
2018-03-22T07:20:48.929Z,22.59
2018-03-22T07:23:18.234Z,24.24
2018-03-22T07:25:48.746Z,24.49
2018-03-22T07:28:17.764Z,24.75
2018-03-22T07:30:46.802Z,23.97
2018-03-22T07:33:15.905Z,23.58
2018-03-22T07:35:46.279Z,24.21
2018-03-22T07:38:16.932Z,25.18
2018-03-22T07:40:46.953Z,23.99
2018-03-22T07:43:22.788Z,24.13
2018-03-22T07:45:52.519Z,23.28
2018-03-22T07:48:22.176Z,23.26
2018-03-22T07:50:52.888Z,23.14
2018-03-22T07:53:22.826Z,24.92
2018-03-22T07:55:53.292Z,24.03
2018-03-22T07:58:23.880Z,24.60
2018-03-22T08:00:54.774Z,24.81
2018-03-22T08:03:25.790Z,23.17
2018-03-22T08:05:55.685Z,22.27
2018-03-22T08:08:26.735Z,22.45
2018-03-22T08:10:57.400Z,21.93
2018-03-22T08:13:28.672Z,21.48
2018-03-22T08:15:59.853Z,23.44
2018-03-22T08:18:31.608Z,22.47
2018-03-22T08:21:02.536Z,21.86
2018-03-22T08:23:33.563Z,21.53
2018-03-22T08:26:04.676Z,21.65
2018-03-22T08:28:36.144Z,21.40
2018-03-22T08:31:07.026Z,21.07
2018-03-22T08:33:37.550Z,23.52
2018-03-22T08:36:07.023Z,24.09
2018-03-22T08:38:37.802Z,24.10
2018-03-22T08:41:09.126Z,22.35
2018-03-22T08:43:39.012Z,22.80
2018-03-22T08:46:09.379Z,22.38
2018-03-22T08:48:39.610Z,23.86
2018-03-22T08:51:09.515Z,23.85
2018-03-22T08:53:39.739Z,24.57
2018-03-22T08:56:09.705Z,23.37
2018-03-22T08:58:40.433Z,23.10
2018-03-22T09:01:11.120Z,22.00
2018-03-22T09:03:40.640Z,23.12
2018-03-22T09:06:11.687Z,23.68
2018-03-22T09:08:42.010Z,23.43
2018-03-22T09:11:12.908Z,23.14
2018-03-22T09:13:43.561Z,23.50
2018-03-22T09:16:14.416Z,23.15
2018-03-22T09:18:45.097Z,23.14
2018-03-22T09:21:17.515Z,23.39
2018-03-22T09:23:48.248Z,23.64
2018-03-22T09:26:18.571Z,22.79
2018-03-22T09:28:50.329Z,23.55
2018-03-22T09:31:21.643Z,22.71
2018-03-22T09:33:52.811Z,22.71
2018-03-22T09:36:23.473Z,21.27
2018-03-22T09:38:54.685Z,22.78
2018-03-22T09:41:25.350Z,22.90
2018-03-22T09:43:56.324Z,22.29
2018-03-22T09:46:26.991Z,22.62
2018-03-22T09:48:57.476Z,22.58
2018-03-22T09:51:27.995Z,22.72
2018-03-22T09:53:58.426Z,23.12
2018-03-22T09:56:28.940Z,22.97
2018-03-22T09:58:59.562Z,22.49
2018-03-22T10:01:30.365Z,22.26
2018-03-22T10:04:00.642Z,21.86
2018-03-22T10:06:31.115Z,22.05
2018-03-22T10:09:01.702Z,21.66
2018-03-22T10:11:33.004Z,23.01
2018-03-22T10:14:04.178Z,21.65
2018-03-22T10:16:36.314Z,21.93
2018-03-22T10:19:06.788Z,22.20
2018-03-22T10:21:39.718Z,22.42
2018-03-22T10:24:10.202Z,23.33
2018-03-22T10:26:41.080Z,22.29
2018-03-22T10:29:12.668Z,23.08
2018-03-22T10:31:45.041Z,22.78
2018-03-22T10:34:15.556Z,23.21
2018-03-22T10:36:46.847Z,22.85
2018-03-22T10:39:18.849Z,23.67
2018-03-22T10:41:49.786Z,23.01
2018-03-22T10:44:20.073Z,23.79
2018-03-22T10:46:50.269Z,23.47
2018-03-22T10:49:21.355Z,23.34
2018-03-22T10:51:52.112Z,23.48
2018-03-22T10:54:22.244Z,24.48
2018-03-22T10:56:52.816Z,24.22
2018-03-22T10:59:22.370Z,23.95
2018-03-22T11:01:57.611Z,24.92
2018-03-22T11:04:27.809Z,24.30
2018-03-22T11:06:58.703Z,24.08
2018-03-22T11:09:29.842Z,23.27
2018-03-22T11:11:59.444Z,24.39
2018-03-22T11:14:29.425Z,23.92
2018-03-22T11:16:59.341Z,24.26
2018-03-22T11:19:30.485Z,24.66
2018-03-22T11:21:59.814Z,24.61
2018-03-22T11:24:30.266Z,24.25
2018-03-22T11:27:00.534Z,23.50
2018-03-22T11:29:30.405Z,24.33
2018-03-22T11:31:59.747Z,24.54
2018-03-22T11:34:29.337Z,24.27
2018-03-22T11:36:58.623Z,24.33
2018-03-22T11:39:27.731Z,24.43
2018-03-22T11:41:58.387Z,24.75
2018-03-22T11:44:27.909Z,24.53
2018-03-22T11:46:57.606Z,25.45
2018-03-22T11:49:27.379Z,24.74
2018-03-22T11:52:11.925Z,24.44
2018-03-22T11:54:42.491Z,24.45
2018-03-22T11:57:12.724Z,24.80
2018-03-22T11:59:42.955Z,24.74
2018-03-22T12:02:12.965Z,24.33
2018-03-22T12:04:42.855Z,25.27
2018-03-22T12:07:12.630Z,25.09
2018-03-22T12:09:42.124Z,25.42
2018-03-22T12:12:11.309Z,25.42
2018-03-22T12:14:40.599Z,26.30
2018-03-22T12:17:09.899Z,26.53
2018-03-22T12:19:39.006Z,27.85
2018-03-22T12:22:08.738Z,26.64
2018-03-22T12:24:37.857Z,26.86
2018-03-22T12:27:07.348Z,27.29
2018-03-22T12:29:36.389Z,26.42
2018-03-22T12:32:05.741Z,26.31
2018-03-22T12:34:34.970Z,26.66
2018-03-22T12:37:04.965Z,26.68
2018-03-22T12:39:34.254Z,26.56
2018-03-22T12:42:03.344Z,26.70
2018-03-22T12:44:32.713Z,26.77
2018-03-22T12:47:01.983Z,27.05
2018-03-22T12:49:31.067Z,27.48
2018-03-22T12:52:00.074Z,27.64
2018-03-22T12:54:29.525Z,27.67
2018-03-22T12:56:58.493Z,27.13
2018-03-22T12:59:27.718Z,27.80
2018-03-22T13:01:56.567Z,28.19
2018-03-22T13:04:26.263Z,29.53
2018-03-22T13:06:55.550Z,29.85
2018-03-22T13:09:26.151Z,29.99
2018-03-22T13:11:55.308Z,30.56
2018-03-22T13:14:24.567Z,30.88
2018-03-22T13:16:53.734Z,31.24
2018-03-22T13:19:23.487Z,31.75
2018-03-22T13:21:52.728Z,31.84
2018-03-22T13:24:22.510Z,31.00
2018-03-22T13:26:51.563Z,30.55
2018-03-22T13:29:20.946Z,30.35
2018-03-22T13:31:50.340Z,30.88
2018-03-22T13:34:20.063Z,31.04
2018-03-22T13:36:49.203Z,30.89
2018-03-22T13:39:18.231Z,31.55
2018-03-22T13:41:47.983Z,32.08
2018-03-22T13:44:17.051Z,32.08
2018-03-22T13:46:46.315Z,32.49
2018-03-22T13:49:15.829Z,32.44
2018-03-22T13:51:45.063Z,32.21
2018-03-22T13:54:14.242Z,31.59
2018-03-22T13:56:44.068Z,31.35
2018-03-22T13:59:13.042Z,31.65
2018-03-22T14:01:42.468Z,32.06
2018-03-22T14:04:11.519Z,32.24
2018-03-22T14:06:40.774Z,32.83
2018-03-22T14:09:10.240Z,33.28
2018-03-22T14:11:39.718Z,33.79
2018-03-22T14:14:09.190Z,34.01
2018-03-22T14:16:38.401Z,34.47
2018-03-22T14:19:07.625Z,34.54
2018-03-22T14:21:37.402Z,34.70
2018-03-22T14:24:06.773Z,33.80
2018-03-22T14:26:36.451Z,33.79
2018-03-22T14:29:05.797Z,34.53
2018-03-22T14:31:35.375Z,32.55
2018-03-22T14:34:04.797Z,32.40
2018-03-22T14:36:34.060Z,32.19
2018-03-22T14:39:03.470Z,32.28
2018-03-22T14:41:32.962Z,32.20
2018-03-22T14:44:02.228Z,32.70
2018-03-22T14:46:31.203Z,32.62
2018-03-22T14:49:01.130Z,32.45
2018-03-22T14:51:30.170Z,34.15
2018-03-22T14:53:59.451Z,34.77
2018-03-22T14:56:28.762Z,33.65
2018-03-22T14:58:57.894Z,34.31
2018-03-22T15:01:26.709Z,34.96
2018-03-22T15:03:56.068Z,34.69
2018-03-22T15:06:25.452Z,33.83
2018-03-22T15:08:55.012Z,33.60
2018-03-22T15:11:24.172Z,32.77
2018-03-22T15:13:53.765Z,32.66
2018-03-22T15:16:23.209Z,32.62
2018-03-22T15:18:52.300Z,33.05
2018-03-22T15:21:21.576Z,33.08
2018-03-22T15:23:50.892Z,32.97
2018-03-22T15:26:20.123Z,32.92
2018-03-22T15:28:51.492Z,32.97
2018-03-22T15:31:20.902Z,32.88
2018-03-22T15:33:50.310Z,33.10
2018-03-22T15:36:19.831Z,33.25
2018-03-22T15:38:49.266Z,33.31
2018-03-22T15:41:18.434Z,33.36
2018-03-22T15:43:47.702Z,33.61
2018-03-22T15:46:17.022Z,33.67
2018-03-22T15:48:46.695Z,33.70
2018-03-22T15:51:16.075Z,33.96
2018-03-22T15:53:45.360Z,34.12
2018-03-22T15:56:14.726Z,34.73
2018-03-22T15:58:44.090Z,34.61
2018-03-22T16:01:13.621Z,34.75
2018-03-22T16:03:42.822Z,34.77
2018-03-22T16:06:11.955Z,34.98
2018-03-22T16:08:41.189Z,35.00
2018-03-22T16:11:10.377Z,35.06
2018-03-22T16:13:39.788Z,35.52
2018-03-22T16:16:08.828Z,35.77
2018-03-22T16:18:38.060Z,35.64
2018-03-22T16:21:07.799Z,35.82
2018-03-22T16:23:36.654Z,35.90
2018-03-22T16:26:05.935Z,36.53
2018-03-22T16:28:35.459Z,38.36
2018-03-22T16:31:05.485Z,39.65
2018-03-22T16:33:34.674Z,40.97
2018-03-22T16:36:04.320Z,41.53
2018-03-22T16:38:33.401Z,42.13
2018-03-22T16:41:02.810Z,42.71
2018-03-22T16:43:32.232Z,42.92
2018-03-22T16:46:01.564Z,43.75
2018-03-22T16:48:30.634Z,43.87
2018-03-22T16:51:00.044Z,44.13
2018-03-22T16:53:29.342Z,44.40
2018-03-22T16:55:58.809Z,44.56
2018-03-22T16:58:30.606Z,45.05
2018-03-22T17:01:00.670Z,44.89
2018-03-22T17:03:30.686Z,45.64
2018-03-22T17:06:00.025Z,45.41
2018-03-22T17:08:29.383Z,45.93
2018-03-22T17:10:58.586Z,46.02
2018-03-22T17:13:28.200Z,46.37
2018-03-22T17:15:57.660Z,46.87
2018-03-22T17:18:26.664Z,48.33
2018-03-22T17:20:55.849Z,48.09
2018-03-22T17:23:24.816Z,48.02
2018-03-22T17:25:54.189Z,48.58
2018-03-22T17:28:23.684Z,48.04
2018-03-22T17:30:52.747Z,48.79
2018-03-22T17:33:22.218Z,47.60
2018-03-22T17:35:51.440Z,49.21
2018-03-22T17:38:20.760Z,50.14
2018-03-22T17:40:49.901Z,49.86
2018-03-22T17:43:19.055Z,50.21
2018-03-22T17:45:48.180Z,50.60
2018-03-22T17:48:17.569Z,51.22
2018-03-22T17:50:46.488Z,50.32
2018-03-22T17:53:16.096Z,51.02
2018-03-22T17:55:45.112Z,51.44
2018-03-22T17:58:14.405Z,51.44
2018-03-22T18:00:43.637Z,51.77
2018-03-22T18:03:12.925Z,51.59
2018-03-22T18:05:42.392Z,51.17
2018-03-22T18:08:11.570Z,51.22
2018-03-22T18:10:40.497Z,51.55
2018-03-22T18:13:10.145Z,51.24
2018-03-22T18:15:39.668Z,52.33
2018-03-22T18:18:08.946Z,52.61
2018-03-22T18:20:39.594Z,52.45
2018-03-22T18:23:09.066Z,53.32
2018-03-22T18:25:38.184Z,53.31
2018-03-22T18:28:07.267Z,54.67
2018-03-22T18:30:36.771Z,53.67
2018-03-22T18:33:05.997Z,54.05
2018-03-22T18:35:35.412Z,54.30
2018-03-22T18:38:04.734Z,54.37
2018-03-22T18:40:34.123Z,53.92
2018-03-22T18:43:03.145Z,54.34
2018-03-22T18:45:32.346Z,54.65
2018-03-22T18:48:01.604Z,54.75
2018-03-22T18:50:30.996Z,54.55
2018-03-22T18:53:00.040Z,54.64
2018-03-22T18:55:29.002Z,54.44
2018-03-22T18:57:58.254Z,54.30
2018-03-22T19:00:27.385Z,54.63
2018-03-22T19:02:56.833Z,55.04
2018-03-22T19:05:26.293Z,54.71
2018-03-22T19:07:55.428Z,54.86
2018-03-22T19:10:24.735Z,54.57
2018-03-22T19:12:55.096Z,55.09
2018-03-22T19:15:24.407Z,55.65
2018-03-22T19:17:53.905Z,55.43
2018-03-22T19:20:23.234Z,55.55
2018-03-22T19:22:53.712Z,56.02
2018-03-22T19:25:23.132Z,56.20
2018-03-22T19:27:52.713Z,56.52
2018-03-22T19:30:22.099Z,57.16
2018-03-22T19:32:51.422Z,57.46
2018-03-22T19:35:20.887Z,56.73
2018-03-22T19:37:50.472Z,57.17
2018-03-22T19:40:19.759Z,57.35
2018-03-22T19:42:49.211Z,57.80
2018-03-22T19:45:18.254Z,57.78
2018-03-22T19:47:47.691Z,57.81
2018-03-22T19:50:17.037Z,57.94
2018-03-22T19:52:46.694Z,58.09
2018-03-22T19:55:15.792Z,57.78
2018-03-22T19:57:44.879Z,58.22
2018-03-22T20:00:14.354Z,58.03
2018-03-22T20:02:43.467Z,58.23
2018-03-22T20:05:12.541Z,57.27
2018-03-22T20:07:41.774Z,57.97
2018-03-22T20:10:10.884Z,58.22
2018-03-22T20:12:40.234Z,58.03
2018-03-22T20:15:09.344Z,57.87
2018-03-22T20:17:38.730Z,58.34
2018-03-22T20:20:08.271Z,58.93
2018-03-22T20:22:37.507Z,58.67
2018-03-22T20:25:06.773Z,58.93
2018-03-22T20:27:35.968Z,58.92
2018-03-22T20:30:05.133Z,58.79
2018-03-22T20:32:34.194Z,58.75
2018-03-22T20:35:03.512Z,58.87
2018-03-22T20:37:32.903Z,58.55
2018-03-22T20:40:01.947Z,58.77
2018-03-22T20:42:31.220Z,58.70
2018-03-22T20:45:00.248Z,59.16
2018-03-22T20:47:29.360Z,58.99
2018-03-22T20:49:58.851Z,59.51
2018-03-22T20:52:28.033Z,59.13
2018-03-22T20:54:57.444Z,59.43
2018-03-22T20:57:26.650Z,58.71
2018-03-22T20:59:55.917Z,59.07
2018-03-22T21:02:25.149Z,59.96
2018-03-22T21:04:54.280Z,59.13
2018-03-22T21:07:23.700Z,59.46
2018-03-22T21:09:52.846Z,59.83
2018-03-22T21:12:21.969Z,59.85
2018-03-22T21:14:52.080Z,60.14
2018-03-22T21:17:21.220Z,60.40
2018-03-22T21:19:50.353Z,60.26
2018-03-22T21:22:19.596Z,60.62
2018-03-22T21:24:48.769Z,60.37
2018-03-22T21:27:17.913Z,60.93
2018-03-22T21:29:47.152Z,60.98
2018-03-22T21:32:16.678Z,61.06
2018-03-22T21:34:45.680Z,60.84
2018-03-22T21:37:14.878Z,60.95
2018-03-22T21:39:44.138Z,61.01
2018-03-22T21:42:13.315Z,61.78
2018-03-22T21:44:43.308Z,62.03
2018-03-22T21:47:24.021Z,61.03
2018-03-22T21:49:53.414Z,61.22
2018-03-22T21:52:33.900Z,61.45
2018-03-22T21:55:03.251Z,61.73
2018-03-22T21:57:32.377Z,61.42
2018-03-22T22:00:01.529Z,62.27
2018-03-22T22:02:30.763Z,62.12
2018-03-22T22:05:00.019Z,62.47
2018-03-22T22:07:29.556Z,62.40
2018-03-22T22:10:00.042Z,61.19
2018-03-22T22:12:29.232Z,61.15
2018-03-22T22:14:58.478Z,62.38
2018-03-22T22:17:27.707Z,62.26
2018-03-22T22:19:57.071Z,61.75
2018-03-22T22:22:26.324Z,61.79
2018-03-22T22:24:55.628Z,61.53
2018-03-22T22:27:25.227Z,61.67
2018-03-22T22:29:54.227Z,62.43
2018-03-22T22:32:23.766Z,61.73
2018-03-22T22:34:53.000Z,62.38
2018-03-22T22:37:22.207Z,62.18
2018-03-22T22:39:51.319Z,62.44
2018-03-22T22:42:20.855Z,62.13
2018-03-22T22:44:50.006Z,62.56
2018-03-22T22:47:19.192Z,62.90
2018-03-22T22:49:48.231Z,62.29
2018-03-22T22:52:17.569Z,62.67
2018-03-22T22:54:46.790Z,62.09
2018-03-22T22:57:16.159Z,62.02
2018-03-22T22:59:45.683Z,62.25
2018-03-22T23:02:15.074Z,62.50
2018-03-22T23:04:44.422Z,62.08
2018-03-22T23:07:13.473Z,61.28
2018-03-22T23:09:42.838Z,61.24
2018-03-22T23:12:12.314Z,61.99
2018-03-22T23:14:41.762Z,61.87
2018-03-22T23:17:11.175Z,62.44
2018-03-22T23:19:46.659Z,62.42
2018-03-22T23:22:16.005Z,62.41
2018-03-22T23:24:45.333Z,62.88
2018-03-22T23:27:14.411Z,62.28
2018-03-22T23:29:43.661Z,62.63
2018-03-22T23:32:12.802Z,63.19
2018-03-22T23:34:41.787Z,63.53
2018-03-22T23:37:11.070Z,63.88
2018-03-22T23:39:39.975Z,63.38
2018-03-22T23:42:09.191Z,63.72
2018-03-22T23:44:38.859Z,63.70
2018-03-22T23:47:08.162Z,63.91
2018-03-22T23:49:37.434Z,64.03
2018-03-22T23:52:06.636Z,63.68
2018-03-22T23:54:36.390Z,63.87
2018-03-22T23:57:05.843Z,63.46
2018-03-22T23:59:35.008Z,63.68
